Estación Meteorológica Peña el Pijo (Robertgarden) [ 12/17/17 01:30:04 CET ]

Fecha Hora Presion(HPa) Temp (°C) Humedad % Rocio (°C) Viento ( m/s) Direccion Lluvia 1Hora(mm) Lluvia 24H(mm) LLuvia Total(mm)
2017-Oct-15 01:01:56 1019.000 9.5 69 4.1         1457.65
2017-Oct-15 02:01:48 1018.900 9.5 69 4.1         1457.65
2017-Oct-15 03:01:45 1018.800 8.2 72 3.5         1457.65
2017-Oct-15 04:04:10 1018.500 7.4 75 3.2         1457.65
2017-Oct-15 05:01:50 1018.400 6.9 76 2.9         1457.65
2017-Oct-15 06:01:40 1018.500 6.3 78 2.7         1457.65
2017-Oct-15 07:01:48 1018.600 6.2 79 2.8         1457.65
2017-Oct-15 08:01:45 1018.400 5.8 80 2.6         1457.65
2017-Oct-15 09:02:02 1018.900 5.8 81 2.8         1457.65
2017-Oct-15 10:01:41 1019.200 12.5 78 8.8         1457.65
2017-Oct-15 11:01:43 1019.200 19.8 51 9.4         1457.65
2017-Oct-15 12:01:44 1018.900 23.4 44 10.4 1.4 S     1457.65
2017-Oct-15 13:01:40 1018.300 25.9 33 8.3         1457.65
2017-Oct-15 14:01:52 1017.700 26.7 29 7.1 1.3 WNW     1457.65
2017-Oct-15 15:01:35 1017.000 27.8 28 7.5         1457.65
2017-Oct-15 16:01:50 1016.600 27.1 28 6.9         1457.65
2017-Oct-15 17:01:38 1016.300 25.7 31 7.3         1457.65
2017-Oct-15 18:01:41 1016.500 24.2 34 7.2 3.9 SSW     1457.65
2017-Oct-15 19:01:26 1017.000 21.3 43 8.2         1457.65
2017-Oct-15 20:01:33 1017.000 18.1 51 7.8         1457.65
2017-Oct-15 21:01:16 1017.200 14.8 58 6.6         1457.65
2017-Oct-15 22:01:40 1017.500 12.7 64 6.0         1457.65
2017-Oct-15 23:01:54 1018.100 11.1 69 5.7         1457.65

Temperatura Máxima:27°    Temperatura Mínima:
Presión Máxima:1019.200 Hpa    Presión Mínima:1016.300 Hpa


Volver